Time;durP1;ratioP1;P1;durP2;ratioP2;P2;SDS_P1;SDS_P2;PMS_P1;PMS_P2;Temp;Humidity;BMP_temperature;BMP_pressure;BME280_temperature;BME280_humidity;BME280_pressure;Samples;Min_cycle;Max_cycle;Signal;HPM_P1;HPM_P2
2021/01/18 00:00:49;;;;;;;0.30;0.30;;;2.90;99.90;;;;;;5033723;28;20169;-68
2021/01/18 00:03:14;;;;;;;0.30;0.30;;;2.90;99.90;;;;;;5015516;28;20673;-69
2021/01/18 00:05:40;;;;;;;0.30;0.30;;;3.00;99.90;;;;;;5014921;28;20426;-68
2021/01/18 00:08:05;;;;;;;0.50;0.50;;;3.00;99.90;;;;;;5031267;28;20569;-70
2021/01/18 00:10:31;;;;;;;0.30;0.30;;;3.00;99.90;;;;;;5034759;28;20630;-69
2021/01/18 00:12:57;;;;;;;0.30;0.30;;;3.00;99.90;;;;;;5028864;28;20685;-69
2021/01/18 00:15:25;;;;;;;1.73;1.23;;;3.00;99.90;;;;;;5033409;28;20557;-70
2021/01/18 00:17:52;;;;;;;0.30;0.30;;;3.10;99.90;;;;;;5032505;28;20220;-69
2021/01/18 00:20:20;;;;;;;0.30;0.30;;;3.10;99.90;;;;;;5033087;28;20177;-70
2021/01/18 00:22:47;;;;;;;0.30;0.30;;;3.10;99.90;;;;;;5021649;28;20259;-69
2021/01/18 00:25:20;;;;;;;0.30;0.30;;;3.10;99.90;;;;;;5032561;28;20602;-68
2021/01/18 00:27:46;;;;;;;0.30;0.30;;;3.10;99.90;;;;;;5032059;28;20707;-70
2021/01/18 00:30:20;;;;;;;0.30;0.30;;;3.10;99.90;;;;;;5032662;28;20273;-68
2021/01/18 00:32:46;;;;;;;0.60;0.43;;;3.10;99.90;;;;;;5033088;28;20565;-70
2021/01/18 00:35:14;;;;;;;0.30;0.30;;;3.10;99.90;;;;;;5032026;28;20181;-69
2021/01/18 00:37:44;;;;;;;0.30;0.30;;;3.10;99.90;;;;;;5034305;28;20169;-69
2021/01/18 00:40:11;;;;;;;0.60;0.60;;;3.10;99.90;;;;;;5025432;28;20546;-69
2021/01/18 00:42:39;;;;;;;0.30;0.30;;;3.10;99.90;;;;;;5012571;28;20333;-71
2021/01/18 00:45:06;;;;;;;0.30;0.30;;;3.10;99.90;;;;;;5020143;28;20166;-68
2021/01/18 00:47:31;;;;;;;0.40;0.40;;;3.10;99.90;;;;;;5033973;28;20166;-70
2021/01/18 00:49:57;;;;;;;0.30;0.30;;;3.10;99.90;;;;;;5033083;28;20177;-71
2021/01/18 00:52:22;;;;;;;0.30;0.30;;;3.10;99.90;;;;;;5033321;28;20531;-69
2021/01/18 00:54:48;;;;;;;0.30;0.30;;;3.10;99.90;;;;;;5030944;28;20630;-70
2021/01/18 00:57:14;;;;;;;0.30;0.30;;;3.10;99.90;;;;;;5014159;28;20179;-69
2021/01/18 00:59:39;;;;;;;0.30;0.30;;;3.10;99.90;;;;;;5013330;28;20178;-70
2021/01/18 01:02:05;;;;;;;0.30;0.30;;;3.10;99.90;;;;;;5026039;28;20356;-69
2021/01/18 01:04:30;;;;;;;0.30;0.30;;;3.10;99.90;;;;;;5012481;28;20297;-70
2021/01/18 01:06:56;;;;;;;0.30;0.30;;;3.10;99.90;;;;;;5032789;28;20174;-71
2021/01/18 01:09:22;;;;;;;0.77;0.77;;;3.00;99.90;;;;;;5032577;28;20630;-69
2021/01/18 01:11:48;;;;;;;0.30;0.30;;;3.10;99.90;;;;;;5012052;28;20218;-70
2021/01/18 01:14:14;;;;;;;0.30;0.30;;;3.10;99.90;;;;;;5013637;28;20225;-69
2021/01/18 01:16:43;;;;;;;0.30;0.30;;;3.10;99.90;;;;;;5032089;28;20633;-71
2021/01/18 01:19:09;;;;;;;0.30;0.30;;;3.10;99.90;;;;;;5032272;28;20432;-69
2021/01/18 01:21:35;;;;;;;0.43;0.43;;;3.00;99.90;;;;;;5032547;28;20530;-72
2021/01/18 01:24:00;;;;;;;0.63;0.63;;;3.10;99.90;;;;;;5032954;28;20189;-69
2021/01/18 01:26:26;;;;;;;0.30;0.30;;;3.00;99.90;;;;;;5032569;28;20417;-72
2021/01/18 01:28:52;;;;;;;0.30;0.30;;;3.00;99.90;;;;;;5033292;28;20166;-71
2021/01/18 01:31:18;;;;;;;0.30;0.30;;;3.00;99.90;;;;;;5018483;28;20178;-72
2021/01/18 01:33:44;;;;;;;0.38;0.38;;;3.00;99.90;;;;;;5024902;28;20212;-70
2021/01/18 01:36:10;;;;;;;0.37;0.37;;;3.00;99.90;;;;;;5033389;28;20167;-70
2021/01/18 01:38:36;;;;;;;0.30;0.30;;;2.90;99.90;;;;;;5028536;28;20471;-71
2021/01/18 01:41:02;;;;;;;0.30;0.30;;;2.90;99.90;;;;;;5031580;28;20245;-69
2021/01/18 01:43:28;;;;;;;0.30;0.30;;;2.90;99.90;;;;;;5021821;28;20744;-70
2021/01/18 01:45:53;;;;;;;0.30;0.30;;;2.90;99.90;;;;;;5012223;28;20179;-69
2021/01/18 01:48:19;;;;;;;0.30;0.30;;;2.90;99.90;;;;;;5014533;28;20182;-71
2021/01/18 01:50:46;;;;;;;0.30;0.30;;;2.90;99.90;;;;;;5012268;28;20654;-72
2021/01/18 01:53:32;;;;;;;0.30;0.30;;;2.90;99.90;;;;;;5018656;28;20872;-69
2021/01/18 01:55:58;;;;;;;0.30;0.30;;;2.90;99.90;;;;;;5033124;28;20170;-71
2021/01/18 01:58:25;;;;;;;0.30;0.30;;;2.90;99.90;;;;;;5025599;28;20229;-70
2021/01/18 02:00:52;;;;;;;0.55;0.55;;;2.90;99.90;;;;;;5012422;28;20578;-71
2021/01/18 02:03:41;;;;;;;1.10;1.10;;;2.90;99.90;;;;;;5011651;28;20194;-70
2021/01/18 02:06:07;;;;;;;0.30;0.30;;;3.00;99.90;;;;;;5014443;28;20201;-69
2021/01/18 02:08:33;;;;;;;0.30;0.30;;;3.00;99.90;;;;;;5032989;28;20167;-71
2021/01/18 02:11:00;;;;;;;0.30;0.30;;;3.00;99.90;;;;;;5031750;28;20573;-70
2021/01/18 02:13:32;;;;;;;0.30;0.30;;;2.90;99.90;;;;;;5012808;28;20213;-69
2021/01/18 02:16:29;;;;;;;0.30;0.30;;;3.00;99.90;;;;;;5026388;28;20225;-69
2021/01/18 02:19:32;;;;;;;0.30;0.30;;;3.00;99.90;;;;;;5015752;28;20182;-70
2021/01/18 02:22:27;;;;;;;0.30;0.30;;;3.00;99.90;;;;;;5032751;28;20161;-71
2021/01/18 02:25:30;;;;;;;0.30;0.30;;;3.00;99.90;;;;;;5022708;28;20179;-69
2021/01/18 02:28:04;;;;;;;0.30;0.30;;;3.00;99.90;;;;;;5013137;28;20220;-70
2021/01/18 02:31:00;;;;;;;0.40;0.40;;;3.00;99.90;;;;;;5026334;28;20589;-69
2021/01/18 02:33:59;;;;;;;0.30;0.30;;;3.00;99.90;;;;;;5032259;28;20205;-71
2021/01/18 02:36:34;;;;;;;0.30;0.30;;;3.10;99.90;;;;;;5013129;28;20198;-72
2021/01/18 02:39:24;;;;;;;0.30;0.30;;;3.10;99.90;;;;;;5025498;28;20674;-70
2021/01/18 02:41:59;;;;;;;2.15;1.10;;;3.10;99.90;;;;;;5034689;28;20174;-72
2021/01/18 02:44:26;;;;;;;0.30;0.30;;;3.10;99.90;;;;;;5025405;28;20190;-71
2021/01/18 02:46:52;;;;;;;0.30;0.30;;;3.10;99.90;;;;;;5016827;28;20205;-71
2021/01/18 02:49:20;;;;;;;0.30;0.30;;;3.10;99.90;;;;;;5019908;28;20701;-70
2021/01/18 02:52:00;;;;;;;0.30;0.30;;;3.20;99.90;;;;;;5016107;28;20221;-72
2021/01/18 02:54:26;;;;;;;0.30;0.30;;;3.20;99.90;;;;;;5025326;28;20205;-69
2021/01/18 02:56:53;;;;;;;0.40;0.40;;;3.20;99.90;;;;;;5036298;28;20530;-68
2021/01/18 02:59:19;;;;;;;0.30;0.30;;;3.20;99.90;;;;;;5026407;28;20426;-71
2021/01/18 03:02:11;;;;;;;0.30;0.30;;;3.20;99.90;;;;;;5015905;28;20202;-70
2021/01/18 03:05:02;;;;;;;0.30;0.30;;;3.20;99.90;;;;;;5024542;28;20201;-70
2021/01/18 03:07:54;;;;;;;0.30;0.28;;;3.20;99.90;;;;;;5036039;28;20162;-71
2021/01/18 03:10:32;;;;;;;0.30;0.30;;;3.20;99.90;;;;;;5035200;28;20170;-69
2021/01/18 03:13:04;;;;;;;0.30;0.30;;;3.20;99.90;;;;;;5035361;28;20539;-70
2021/01/18 03:15:36;;;;;;;0.30;0.30;;;3.20;99.90;;;;;;5035407;28;20584;-72
2021/01/18 03:18:04;;;;;;;0.30;0.30;;;3.20;99.90;;;;;;5035888;28;20190;-72
2021/01/18 03:20:31;;;;;;;0.30;0.30;;;3.20;99.90;;;;;;5018720;28;20570;-70
2021/01/18 03:23:07;;;;;;;0.30;0.30;;;3.10;99.90;;;;;;5035140;28;20190;-70
2021/01/18 03:25:48;;;;;;;0.30;0.30;;;3.20;99.90;;;;;;5015575;28;20194;-70
2021/01/18 03:28:14;;;;;;;0.30;0.20;;;3.10;99.90;;;;;;5016002;28;20508;-71
2021/01/18 03:30:40;;;;;;;0.30;0.30;;;3.10;99.90;;;;;;5034795;28;20192;-70
2021/01/18 03:33:06;;;;;;;1.50;0.70;;;3.10;99.90;;;;;;5034895;28;20205;-69
2021/01/18 03:35:31;;;;;;;0.30;0.30;;;3.20;99.90;;;;;;5023258;28;20224;-70
2021/01/18 03:37:58;;;;;;;0.30;0.30;;;3.10;99.90;;;;;;5035242;28;20437;-72
2021/01/18 03:40:25;;;;;;;0.30;0.30;;;3.10;99.90;;;;;;5034311;28;20273;-69
2021/01/18 03:43:01;;;;;;;0.40;0.40;;;3.20;99.90;;;;;;5034180;28;20209;-70
2021/01/18 03:45:30;;;;;;;0.20;0.20;;;3.20;99.90;;;;;;5019139;28;20507;-69
2021/01/18 03:47:56;;;;;;;0.30;0.30;;;3.10;99.90;;;;;;5015437;28;20175;-70
2021/01/18 03:50:22;;;;;;;0.40;0.40;;;3.10;99.90;;;;;;5029023;28;20630;-70
2021/01/18 03:52:49;;;;;;;0.30;0.30;;;3.10;99.90;;;;;;5033901;28;20618;-71
2021/01/18 03:55:15;;;;;;;0.30;0.30;;;3.10;99.90;;;;;;5021837;28;20178;-72
2021/01/18 03:57:41;;;;;;;0.40;0.40;;;3.10;99.90;;;;;;5015270;28;20641;-70
2021/01/18 04:00:08;;;;;;;0.30;0.30;;;3.10;99.90;;;;;;5026706;28;20179;-71
2021/01/18 04:02:34;;;;;;;0.30;0.30;;;3.10;99.90;;;;;;5034387;28;20175;-69
2021/01/18 04:05:00;;;;;;;0.30;0.30;;;3.10;99.90;;;;;;5022554;28;20245;-71
2021/01/18 04:07:25;;;;;;;0.40;0.40;;;3.10;99.90;;;;;;5015183;28;20638;-69
2021/01/18 04:09:51;;;;;;;0.40;0.40;;;3.20;99.90;;;;;;5031001;28;20189;-70
2021/01/18 04:12:17;;;;;;;0.30;0.30;;;3.20;99.90;;;;;;5034234;28;20530;-69
2021/01/18 04:14:45;;;;;;;1.33;1.23;;;3.10;99.90;;;;;;5033942;28;20193;-70
2021/01/18 04:17:11;;;;;;;0.30;0.30;;;3.10;99.90;;;;;;5034681;28;20193;-69
2021/01/18 04:19:37;;;;;;;0.90;0.90;;;3.20;99.90;;;;;;5033471;28;20186;-70
2021/01/18 04:22:06;;;;;;;1.03;1.03;;;3.20;99.90;;;;;;5034139;28;20162;-70
2021/01/18 04:24:35;;;;;;;0.82;0.82;;;3.20;99.90;;;;;;5033612;28;20662;-70
2021/01/18 04:27:01;;;;;;;0.30;0.30;;;3.10;99.90;;;;;;5034529;28;20177;-70
2021/01/18 04:29:27;;;;;;;0.30;0.30;;;3.10;99.90;;;;;;5031741;28;20173;-70
2021/01/18 04:31:54;;;;;;;0.30;0.30;;;3.20;99.90;;;;;;5033921;28;20405;-70
2021/01/18 04:34:19;;;;;;;0.30;0.30;;;3.20;99.90;;;;;;5033753;28;20292;-70
2021/01/18 04:36:45;;;;;;;0.30;0.27;;;3.20;99.90;;;;;;5034386;28;20209;-70
2021/01/18 04:39:11;;;;;;;0.30;0.20;;;3.20;99.90;;;;;;5029724;28;20217;-70
2021/01/18 04:41:43;;;;;;;0.30;0.30;;;3.20;99.90;;;;;;5033829;28;20170;-71
2021/01/18 04:44:11;;;;;;;0.30;0.30;;;3.20;99.90;;;;;;5033421;28;20482;-70
2021/01/18 04:46:39;;;;;;;0.30;0.30;;;3.20;99.90;;;;;;5032780;28;20192;-69
2021/01/18 04:49:05;;;;;;;0.50;0.50;;;3.20;99.90;;;;;;5029926;28;20253;-68
2021/01/18 04:51:46;;;;;;;0.30;0.30;;;3.20;99.90;;;;;;5033261;28;20212;-71
2021/01/18 04:54:20;;;;;;;0.35;0.35;;;3.20;99.90;;;;;;5014347;28;20288;-70
2021/01/18 04:57:08;;;;;;;0.30;0.30;;;3.20;99.90;;;;;;5015010;28;20205;-69
2021/01/18 04:59:42;;;;;;;0.30;0.30;;;3.20;99.90;;;;;;5033361;28;20178;-70
2021/01/18 05:02:12;;;;;;;0.30;0.30;;;3.10;99.90;;;;;;5029400;28;20169;-69
2021/01/18 05:04:41;;;;;;;0.30;0.30;;;3.20;99.90;;;;;;5015501;28;20207;-70
2021/01/18 05:07:36;;;;;;;0.30;0.30;;;3.20;99.90;;;;;;5030334;28;20174;-70
2021/01/18 05:10:10;;;;;;;0.60;0.55;;;3.10;99.90;;;;;;5004403;28;20266;-69
2021/01/18 05:12:38;;;;;;;0.30;0.30;;;3.10;99.90;;;;;;5023058;28;20197;-70
2021/01/18 05:15:08;;;;;;;0.38;0.38;;;3.10;99.90;;;;;;5032371;28;20174;-69
2021/01/18 05:17:45;;;;;;;0.30;0.30;;;3.10;99.90;;;;;;5023618;28;20592;-70
2021/01/18 05:20:13;;;;;;;0.30;0.30;;;3.10;99.90;;;;;;5021856;28;20231;-70
2021/01/18 05:22:44;;;;;;;0.30;0.30;;;3.10;99.90;;;;;;5031246;28;20198;-70
2021/01/18 05:25:14;;;;;;;0.30;0.30;;;3.00;99.90;;;;;;5032089;28;20201;-70
2021/01/18 05:28:10;;;;;;;0.30;0.30;;;3.00;99.90;;;;;;5033073;28;20633;-71
2021/01/18 05:30:40;;;;;;;0.30;0.30;;;3.10;99.90;;;;;;5033399;28;20184;-69
2021/01/18 05:33:14;;;;;;;0.30;0.30;;;3.10;99.90;;;;;;5030965;28;20210;-72
2021/01/18 05:35:48;;;;;;;0.88;0.88;;;3.00;99.90;;;;;;5033368;28;20177;-67
2021/01/18 05:38:15;;;;;;;0.30;0.30;;;3.10;99.90;;;;;;5019638;28;20666;-71
2021/01/18 05:40:44;;;;;;;1.75;1.65;;;3.10;99.90;;;;;;5024182;28;20182;-68
2021/01/18 05:43:11;;;;;;;0.30;0.30;;;3.10;99.90;;;;;;5032982;28;20182;-70
2021/01/18 05:45:44;;;;;;;0.30;0.30;;;3.10;99.90;;;;;;5027203;28;20182;-69
2021/01/18 05:48:11;;;;;;;0.30;0.30;;;3.10;99.90;;;;;;5032067;28;20177;-70
2021/01/18 05:50:38;;;;;;;0.30;0.30;;;3.20;99.90;;;;;;5024112;28;20182;-70
2021/01/18 05:53:24;;;;;;;0.30;0.30;;;3.20;99.90;;;;;;5012869;28;20246;-70
2021/01/18 05:55:50;;;;;;;0.47;0.47;;;3.20;99.90;;;;;;5023377;28;20170;-71
2021/01/18 05:58:32;;;;;;;0.30;0.30;;;3.20;99.90;;;;;;5031551;28;20200;-67
2021/01/18 06:00:59;;;;;;;0.30;0.30;;;3.20;99.90;;;;;;5013202;28;20413;-70
2021/01/18 06:03:29;;;;;;;0.30;0.30;;;3.20;99.90;;;;;;5013057;28;20272;-68
2021/01/18 06:05:56;;;;;;;0.30;0.30;;;3.20;99.90;;;;;;5013160;28;20201;-69
2021/01/18 06:08:23;;;;;;;0.40;0.40;;;3.20;99.90;;;;;;5013613;28;20631;-70
2021/01/18 06:10:51;;;;;;;0.30;0.30;;;3.30;99.90;;;;;;5013190;28;20197;-69
2021/01/18 06:13:22;;;;;;;0.30;0.30;;;3.20;99.90;;;;;;5023131;28;20217;-72
2021/01/18 06:15:49;;;;;;;0.30;0.20;;;3.20;99.90;;;;;;5034894;28;20170;-70
2021/01/18 06:18:16;;;;;;;0.30;0.30;;;3.20;99.90;;;;;;5026660;28;20325;-70
2021/01/18 06:20:43;;;;;;;0.30;0.30;;;3.20;99.90;;;;;;5015640;28;20640;-68
2021/01/18 06:23:09;;;;;;;0.30;0.30;;;3.20;99.90;;;;;;5028436;28;20684;-70
2021/01/18 06:25:37;;;;;;;0.30;0.30;;;3.20;99.90;;;;;;5036321;28;20253;-69
2021/01/18 06:28:22;;;;;;;0.40;0.40;;;3.20;99.90;;;;;;5029125;28;20429;-70
2021/01/18 06:31:01;;;;;;;0.30;0.30;;;3.20;99.90;;;;;;5022228;28;20170;-69
2021/01/18 06:33:47;;;;;;;0.30;0.30;;;3.20;99.90;;;;;;5025361;28;20214;-69
2021/01/18 06:36:20;;;;;;;0.30;0.30;;;3.20;99.90;;;;;;5018275;28;20171;-70
2021/01/18 06:38:50;;;;;;;0.30;0.30;;;3.20;99.90;;;;;;5023810;28;20257;-70
2021/01/18 06:41:27;;;;;;;0.30;0.30;;;3.20;99.90;;;;;;5031309;28;20197;-70
2021/01/18 06:43:53;;;;;;;0.30;0.30;;;3.20;99.90;;;;;;5023790;28;20197;-69
2021/01/18 06:46:36;;;;;;;0.32;0.32;;;3.20;99.90;;;;;;5025596;28;20228;-69
2021/01/18 06:49:05;;;;;;;0.30;0.30;;;3.20;99.90;;;;;;5027044;28;20221;-70
2021/01/18 06:51:31;;;;;;;0.75;0.75;;;3.20;99.90;;;;;;5025790;28;20174;-69
2021/01/18 06:53:59;;;;;;;1.67;1.58;;;3.30;99.90;;;;;;5024534;28;20233;-69
2021/01/18 06:56:58;;;;;;;0.30;0.30;;;3.30;99.90;;;;;;5024443;28;20600;-70
2021/01/18 06:59:49;;;;;;;0.30;0.30;;;3.30;99.90;;;;;;5042738;28;20180;-69
2021/01/18 07:02:20;;;;;;;0.30;0.30;;;3.20;99.90;;;;;;5025991;28;20158;-70
2021/01/18 07:04:47;;;;;;;0.30;0.30;;;3.30;99.90;;;;;;5024707;28;20189;-70
2021/01/18 07:07:25;;;;;;;0.30;0.30;;;3.20;99.90;;;;;;5024903;28;20167;-69
2021/01/18 07:09:56;;;;;;;0.43;0.43;;;3.30;99.90;;;;;;5024748;28;20173;-69
2021/01/18 07:12:24;;;;;;;0.30;0.30;;;3.30;99.90;;;;;;5024278;28;20221;-69
2021/01/18 07:15:03;;;;;;;0.35;0.35;;;3.30;99.90;;;;;;5027189;28;20178;-70
2021/01/18 07:17:55;;;;;;;0.70;0.70;;;3.30;99.90;;;;;;5035304;28;20248;-69
2021/01/18 07:20:29;;;;;;;0.30;0.30;;;3.30;99.90;;;;;;5031670;28;20181;-69
2021/01/18 07:23:06;;;;;;;0.30;0.28;;;3.20;99.90;;;;;;5033864;28;20198;-70
2021/01/18 07:25:40;;;;;;;0.30;0.30;;;3.30;99.90;;;;;;5035376;28;20553;-70
2021/01/18 07:28:07;;;;;;;0.32;0.32;;;3.30;99.90;;;;;;5033792;28;20178;-71
2021/01/18 07:30:35;;;;;;;0.30;0.30;;;3.30;99.90;;;;;;5035529;28;20600;-69
2021/01/18 07:33:08;;;;;;;0.30;0.30;;;3.30;99.90;;;;;;5034688;28;20681;-70
2021/01/18 07:35:36;;;;;;;2.28;1.10;;;3.30;99.90;;;;;;5033817;28;20645;-70
2021/01/18 07:38:16;;;;;;;0.30;0.30;;;3.20;99.90;;;;;;5035289;28;20166;-72
2021/01/18 07:41:07;;;;;;;0.40;0.40;;;3.30;99.90;;;;;;5035240;28;20170;-68
2021/01/18 07:43:38;;;;;;;0.30;0.30;;;3.30;99.90;;;;;;5034360;28;20202;-70
2021/01/18 07:46:25;;;;;;;0.30;0.30;;;3.30;99.90;;;;;;5034859;28;20531;-70
2021/01/18 07:48:54;;;;;;;0.30;0.30;;;3.40;99.90;;;;;;5035195;28;20257;-70
2021/01/18 07:51:23;;;;;;;1.20;1.20;;;3.30;99.90;;;;;;5034693;28;20169;-70
2021/01/18 07:53:49;;;;;;;0.30;0.30;;;3.30;99.90;;;;;;5034533;28;20626;-69
2021/01/18 07:56:24;;;;;;;0.50;0.50;;;3.30;99.90;;;;;;5034887;28;20171;-69
2021/01/18 07:59:00;;;;;;;0.30;0.30;;;3.30;99.90;;;;;;5034904;28;20157;-70
2021/01/18 08:01:39;;;;;;;0.30;0.30;;;3.30;99.90;;;;;;5034564;28;20166;-71
2021/01/18 08:04:17;;;;;;;0.30;0.30;;;3.30;99.90;;;;;;5034492;28;20285;-73
2021/01/18 08:07:06;;;;;;;0.30;0.30;;;3.30;99.90;;;;;;5033416;28;20177;-72
2021/01/18 08:09:36;;;;;;;0.30;0.30;;;3.30;99.90;;;;;;5015073;28;20175;-71
2021/01/18 08:12:33;;;;;;;0.30;0.30;;;3.40;99.90;;;;;;5013510;28;20178;-71
2021/01/18 08:15:15;;;;;;;0.30;0.30;;;3.50;99.90;;;;;;5015389;28;20333;-70
2021/01/18 08:17:46;;;;;;;0.82;0.82;;;3.50;99.90;;;;;;5034627;28;20178;-72
2021/01/18 08:20:16;;;;;;;0.30;0.20;;;3.50;99.90;;;;;;5034244;28;20186;-69
2021/01/18 08:22:42;;;;;;;0.30;0.30;;;3.50;99.90;;;;;;5034049;28;20273;-69
2021/01/18 08:25:09;;;;;;;0.30;0.30;;;3.50;99.90;;;;;;5034512;28;20205;-69
2021/01/18 08:27:38;;;;;;;0.30;0.30;;;3.50;99.90;;;;;;5034342;28;20173;-70
2021/01/18 08:30:41;;;;;;;0.30;0.22;;;3.60;99.90;;;;;;5034341;28;20172;-68
2021/01/18 08:33:09;;;;;;;0.30;0.30;;;3.60;99.90;;;;;;5029207;28;20210;-69
2021/01/18 08:35:43;;;;;;;0.30;0.30;;;3.60;99.90;;;;;;5014596;28;21101;-70
2021/01/18 08:38:10;;;;;;;0.30;0.30;;;3.60;99.90;;;;;;5013891;28;20205;-73
2021/01/18 08:40:43;;;;;;;1.30;1.20;;;3.70;99.90;;;;;;5029961;28;20189;-70
2021/01/18 08:43:09;;;;;;;0.40;0.40;;;3.70;99.90;;;;;;5032297;28;20221;-73
2021/01/18 08:45:49;;;;;;;0.30;0.30;;;3.70;99.90;;;;;;5033577;28;20228;-73
2021/01/18 08:48:26;;;;;;;0.30;0.30;;;3.80;99.90;;;;;;5034097;28;20292;-76
2021/01/18 08:50:58;;;;;;;0.30;0.30;;;3.90;99.90;;;;;;5033479;28;20173;-70
2021/01/18 08:53:24;;;;;;;0.30;0.30;;;3.90;99.90;;;;;;5032972;28;20526;-72
2021/01/18 08:55:51;;;;;;;0.30;0.30;;;4.00;99.90;;;;;;5033323;28;20170;-70
2021/01/18 08:58:33;;;;;;;0.30;0.30;;;4.10;99.90;;;;;;5033574;28;20170;-68
2021/01/18 09:01:01;;;;;;;0.30;0.30;;;4.20;99.90;;;;;;5013966;28;20217;-74
2021/01/18 09:03:27;;;;;;;0.30;0.30;;;4.20;99.90;;;;;;5013438;28;20197;-75
2021/01/18 09:05:57;;;;;;;0.30;0.30;;;4.30;99.90;;;;;;5013861;28;20190;-70
2021/01/18 09:08:24;;;;;;;0.30;0.30;;;4.40;99.90;;;;;;5013793;28;20183;-72
2021/01/18 09:10:59;;;;;;;0.30;0.30;;;4.50;99.90;;;;;;5013487;28;20178;-71
2021/01/18 09:13:28;;;;;;;0.30;0.30;;;4.60;99.90;;;;;;5022720;28;20213;-73
2021/01/18 09:15:55;;;;;;;0.30;0.30;;;4.80;99.90;;;;;;5023128;28;20173;-73
2021/01/18 09:18:22;;;;;;;0.30;0.30;;;4.80;99.90;;;;;;5021945;28;20690;-72
2021/01/18 09:20:49;;;;;;;0.30;0.30;;;4.80;99.90;;;;;;5020806;28;20170;-72
2021/01/18 09:23:16;;;;;;;0.30;0.30;;;4.80;99.90;;;;;;5023067;28;20289;-70
2021/01/18 09:25:41;;;;;;;0.30;0.30;;;4.90;99.90;;;;;;5021797;28;20178;-72
2021/01/18 09:28:15;;;;;;;0.30;0.30;;;4.80;99.90;;;;;;5020993;28;20713;-72
2021/01/18 09:30:43;;;;;;;0.30;0.30;;;4.70;99.90;;;;;;5022900;28;20163;-72
2021/01/18 09:33:11;;;;;;;0.45;0.45;;;4.80;99.90;;;;;;5019869;28;20206;-72
2021/01/18 09:35:44;;;;;;;0.30;0.30;;;4.90;99.90;;;;;;5013214;28;20167;-70
2021/01/18 09:38:12;;;;;;;0.30;0.30;;;4.90;99.90;;;;;;5013309;28;20269;-76
2021/01/18 09:40:43;;;;;;;0.30;0.30;;;4.90;99.90;;;;;;5013592;28;20187;-75
2021/01/18 09:43:10;;;;;;;0.30;0.30;;;4.90;99.90;;;;;;5027855;28;20691;-70
2021/01/18 09:45:36;;;;;;;0.30;0.30;;;5.00;99.90;;;;;;5033138;28;20193;-72
2021/01/18 09:48:07;;;;;;;0.30;0.30;;;5.10;99.90;;;;;;5032940;28;20178;-75
2021/01/18 09:50:35;;;;;;;0.98;0.93;;;5.10;99.90;;;;;;5035910;28;20186;-73
2021/01/18 09:53:09;;;;;;;0.50;0.50;;;5.20;99.90;;;;;;5035457;28;20244;-75
2021/01/18 09:55:45;;;;;;;0.30;0.20;;;5.20;99.90;;;;;;5037385;28;20194;-75
2021/01/18 09:58:26;;;;;;;0.30;0.30;;;5.30;99.90;;;;;;5037044;28;20223;-76
2021/01/18 10:00:53;;;;;;;0.30;0.30;;;5.30;99.90;;;;;;5037751;28;20162;-76
2021/01/18 10:03:34;;;;;;;0.60;0.60;;;5.30;99.90;;;;;;5036871;28;20193;-73
2021/01/18 10:06:12;;;;;;;0.30;0.30;;;5.30;99.90;;;;;;5036092;28;20200;-72
2021/01/18 10:08:46;;;;;;;0.30;0.30;;;5.20;99.90;;;;;;5037132;28;20215;-74
2021/01/18 10:11:21;;;;;;;0.30;0.20;;;5.20;99.90;;;;;;5037314;28;20235;-75
2021/01/18 10:14:00;;;;;;;0.30;0.30;;;5.30;99.90;;;;;;5037301;28;20201;-73
2021/01/18 10:16:26;;;;;;;0.30;0.30;;;5.30;99.90;;;;;;5029960;28;20176;-73
2021/01/18 10:18:52;;;;;;;0.30;0.30;;;5.30;99.90;;;;;;5027041;28;20159;-77
2021/01/18 10:21:18;;;;;;;0.30;0.20;;;5.30;99.90;;;;;;5025873;28;20174;-77
2021/01/18 10:23:49;;;;;;;0.30;0.30;;;5.40;99.90;;;;;;5018043;28;20438;-72
2021/01/18 10:26:21;;;;;;;0.30;0.30;;;5.40;99.90;;;;;;5017029;28;20370;-74
2021/01/18 10:28:52;;;;;;;0.30;0.30;;;5.40;99.90;;;;;;5016915;28;20250;-70
2021/01/18 10:31:23;;;;;;;0.30;0.30;;;5.40;99.90;;;;;;5016546;28;20286;-73
2021/01/18 10:34:08;;;;;;;0.30;0.30;;;5.50;99.90;;;;;;5020562;28;20784;-74
2021/01/18 10:36:34;;;;;;;0.30;0.30;;;5.50;99.90;;;;;;5024354;28;20212;-74
2021/01/18 10:38:59;;;;;;;0.80;0.80;;;5.40;99.90;;;;;;5029479;28;20668;-74
2021/01/18 10:41:27;;;;;;;0.30;0.30;;;5.40;99.90;;;;;;5033281;28;20436;-74
2021/01/18 10:43:54;;;;;;;0.30;0.30;;;5.40;99.90;;;;;;5035930;28;20190;-75
2021/01/18 10:46:20;;;;;;;0.30;0.30;;;5.50;99.90;;;;;;5035957;28;20573;-74
2021/01/18 10:48:55;;;;;;;0.30;0.30;;;5.50;99.90;;;;;;5021794;28;20261;-71
2021/01/18 10:51:25;;;;;;;0.30;0.30;;;5.50;99.90;;;;;;5014508;28;20178;-77
2021/01/18 10:53:56;;;;;;;0.30;0.30;;;5.60;99.90;;;;;;5033291;28;20567;-74
2021/01/18 10:56:29;;;;;;;0.30;0.30;;;5.80;99.90;;;;;;5029986;28;20532;-75
2021/01/18 10:58:56;;;;;;;0.30;0.30;;;5.80;99.90;;;;;;5033403;28;20265;-76
2021/01/18 11:01:22;;;;;;;0.30;0.30;;;5.90;99.90;;;;;;5026026;28;20181;-72
2021/01/18 11:03:48;;;;;;;1.90;1.47;;;5.80;99.90;;;;;;5018198;28;20199;-76
2021/01/18 11:06:15;;;;;;;0.30;0.30;;;5.90;99.90;;;;;;5034329;28;20425;-72
2021/01/18 11:08:41;;;;;;;0.30;0.30;;;5.90;99.90;;;;;;5029910;28;20415;-72
2021/01/18 11:11:17;;;;;;;0.30;0.30;;;5.90;99.90;;;;;;5026532;28;20533;-75
2021/01/18 11:13:44;;;;;;;0.30;0.30;;;6.00;99.90;;;;;;5024034;28;20463;-73
2021/01/18 11:16:15;;;;;;;0.93;0.93;;;6.10;99.90;;;;;;5014774;28;20226;-76
2021/01/18 11:18:41;;;;;;;0.30;0.30;;;6.10;99.90;;;;;;5017199;28;20169;-69
2021/01/18 11:21:07;;;;;;;0.30;0.30;;;6.10;99.90;;;;;;5014542;28;20196;-72
2021/01/18 11:23:32;;;;;;;0.30;0.30;;;6.20;99.90;;;;;;5030598;28;20519;-71
2021/01/18 11:25:58;;;;;;;0.30;0.20;;;6.20;99.90;;;;;;5034323;28;20563;-76
2021/01/18 11:28:25;;;;;;;0.30;0.30;;;6.20;99.90;;;;;;5033790;28;20182;-69
2021/01/18 11:30:51;;;;;;;0.30;0.30;;;6.20;99.90;;;;;;5035461;28;20226;-72
2021/01/18 11:33:17;;;;;;;0.30;0.30;;;6.20;99.90;;;;;;5020950;28;20215;-73
2021/01/18 11:35:43;;;;;;;0.30;0.30;;;6.20;99.90;;;;;;5019268;28;20508;-76
2021/01/18 11:38:13;;;;;;;0.50;0.50;;;6.30;99.90;;;;;;5034277;28;20185;-73
2021/01/18 11:40:39;;;;;;;0.30;0.20;;;6.30;99.90;;;;;;5035712;28;20169;-70
2021/01/18 11:43:05;;;;;;;0.30;0.30;;;6.30;99.90;;;;;;5034852;28;20295;-73
2021/01/18 11:45:31;;;;;;;0.30;0.20;;;6.30;99.90;;;;;;5030464;28;20425;-72
2021/01/18 11:47:57;;;;;;;0.30;0.30;;;6.30;99.90;;;;;;5025997;28;20174;-71
2021/01/18 11:50:24;;;;;;;0.30;0.30;;;6.40;99.90;;;;;;5030490;28;20201;-74
2021/01/18 11:52:57;;;;;;;0.30;0.30;;;6.30;99.90;;;;;;5032688;28;20200;-75
2021/01/18 11:55:23;;;;;;;1.95;1.40;;;6.30;99.90;;;;;;5034405;28;20558;-71
2021/01/18 11:57:50;;;;;;;0.30;0.20;;;6.30;99.90;;;;;;5024206;28;20179;-73
2021/01/18 12:00:21;;;;;;;0.30;0.20;;;6.30;99.90;;;;;;5025377;28;20425;-68
2021/01/18 12:02:46;;;;;;;0.30;0.30;;;6.20;99.90;;;;;;5022894;28;20204;-73
2021/01/18 12:05:12;;;;;;;0.30;0.30;;;6.10;99.90;;;;;;5023637;28;20565;-67
2021/01/18 12:07:38;;;;;;;0.30;0.30;;;6.10;99.90;;;;;;5015279;28;20653;-75
2021/01/18 12:10:06;;;;;;;0.30;0.30;;;6.10;99.90;;;;;;5025502;28;20938;-71
2021/01/18 12:12:35;;;;;;;0.30;0.30;;;6.00;99.90;;;;;;5033008;28;20510;-69
2021/01/18 12:15:01;;;;;;;0.50;0.50;;;6.10;99.90;;;;;;5014506;28;20175;-69
2021/01/18 12:17:26;;;;;;;0.30;0.30;;;6.10;99.90;;;;;;5018228;28;20172;-71
2021/01/18 12:19:52;;;;;;;0.30;0.30;;;6.20;99.90;;;;;;5033997;28;20422;-71
2021/01/18 12:22:18;;;;;;;0.30;0.30;;;6.20;99.90;;;;;;5027078;28;20194;-71
2021/01/18 12:24:44;;;;;;;0.30;0.30;;;6.20;99.90;;;;;;5033686;28;20179;-71
2021/01/18 12:27:10;;;;;;;0.53;0.53;;;6.20;99.90;;;;;;5032597;28;20509;-71
2021/01/18 12:29:36;;;;;;;0.30;0.30;;;6.20;99.90;;;;;;5020505;28;20924;-70
2021/01/18 12:32:02;;;;;;;0.30;0.30;;;6.30;99.90;;;;;;5017227;28;20181;-72
2021/01/18 12:34:28;;;;;;;0.30;0.30;;;6.40;99.90;;;;;;5032684;28;20473;-71
2021/01/18 12:36:59;;;;;;;0.43;0.43;;;6.40;99.90;;;;;;5034223;28;20631;-71
2021/01/18 12:39:25;;;;;;;0.60;0.60;;;6.30;99.90;;;;;;5033843;28;20179;-71
2021/01/18 12:41:51;;;;;;;0.50;0.50;;;6.30;99.90;;;;;;5033391;28;20193;-72
2021/01/18 12:44:16;;;;;;;0.30;0.30;;;6.40;99.90;;;;;;5033466;28;20208;-71
2021/01/18 12:46:42;;;;;;;0.30;0.30;;;6.40;99.90;;;;;;5032875;28;20182;-71
2021/01/18 12:49:08;;;;;;;0.30;0.30;;;6.40;99.90;;;;;;5034264;28;20250;-72
2021/01/18 12:51:34;;;;;;;0.30;0.30;;;6.30;99.90;;;;;;5032241;28;20192;-71
2021/01/18 12:54:00;;;;;;;0.30;0.30;;;6.30;99.90;;;;;;5033752;28;20202;-72
2021/01/18 12:56:28;;;;;;;0.30;0.30;;;6.20;99.90;;;;;;5032857;28;20800;-71
2021/01/18 12:58:55;;;;;;;0.30;0.30;;;6.10;99.90;;;;;;5033786;28;20185;-71
2021/01/18 13:01:30;;;;;;;0.30;0.30;;;6.10;99.90;;;;;;5033478;28;20170;-72
2021/01/18 13:03:57;;;;;;;0.30;0.30;;;6.00;99.90;;;;;;5032210;28;20224;-71
2021/01/18 13:06:38;;;;;;;0.30;0.30;;;5.90;99.90;;;;;;5033705;28;20174;-71
2021/01/18 13:09:13;;;;;;;0.30;0.30;;;5.90;99.90;;;;;;5033797;28;20205;-72
2021/01/18 13:11:43;;;;;;;0.30;0.30;;;5.90;99.90;;;;;;5032501;28;20182;-71
2021/01/18 13:14:08;;;;;;;0.30;0.30;;;5.90;99.90;;;;;;5033350;28;20301;-71
2021/01/18 13:16:34;;;;;;;0.30;0.30;;;6.00;99.90;;;;;;5033694;28;20194;-72